Bookmark and Share
Track history (hours):
 

M/T Goviken

Last reported at 2014-Apr-12 06:19 UTC. Time now 2014-Apr-16 19:23 UTC.
Position N 36°39' W 008°04'.

Length 88 m; draft 5.5 m.

Type: Ship (hazmat cat A). MMSI: 215389000.

NotesDate/timePositionNaut miles runAvg speedWind from/ knotsBaromVisibWave heightAir tempDewpointWater temp
2014-Apr-12 06:19N 36°39' W 008°04'7 8.4
2014-Apr-12 05:32N 36°37' W 008°12'10 8.4
2014-Apr-12 04:23N 36°36' W 008°24'7 7.9
2014-Apr-12 03:30N 36°34' W 008°33'17 8.0
2014-Apr-12 01:19N 36°30' W 008°54'7 7.7
2014-Apr-12 00:22N 36°28' W 009°02'7 7.7
2014-Apr-11 23:31N 36°29' W 009°11'26 8.0
2014-Apr-11 20:16N 36°45' W 009°36'32 8.0
2014-Apr-11 16:16N 37°17' W 009°37'2 2.1
2014-Apr-11 15:05N 37°20' W 009°36'4 6.5
2014-Apr-11 14:30N 37°23' W 009°36'8 7.3
2014-Apr-11 13:25N 37°31' W 009°34'9 8.0
2014-Apr-11 12:16N 37°40' W 009°32'6 7.7
2014-Apr-11 11:33N 37°46' W 009°31'8 7.7
2014-Apr-11 10:33N 37°53' W 009°30'8 7.7
2014-Apr-11 09:33N 38°01' W 009°30'8 7.9
2014-Apr-11 08:33N 38°09' W 009°28'8 8.1
2014-Apr-11 07:33N 38°17' W 009°27'17 8.1
2014-Apr-11 05:28N 38°34' W 009°24'8 8.7
2014-Apr-11 04:33N 38°40' W 009°18'4 3.5
2014-Apr-11 03:31N 38°41' W 009°14'0 0.0
2014-Apr-11 02:31N 38°41' W 009°14'0 0.0
2014-Apr-11 01:31N 38°41' W 009°14'0 0.0
2014-Apr-11 00:31N 38°41' W 009°14'0 0.0
2014-Apr-10 23:31N 38°41' W 009°14'0 0.0
2014-Apr-10 22:31N 38°41' W 009°14'0 0.0
2014-Apr-10 21:31N 38°41' W 009°14'0 0.0
2014-Apr-10 20:31N 38°41' W 009°14'0 0.0
2014-Apr-10 19:31N 38°41' W 009°14'0 0.0
2014-Apr-10 18:31N 38°41' W 009°14'0 0.0
2014-Apr-10 17:31N 38°41' W 009°14'2 1.6
2014-Apr-10 16:33N 38°41' W 009°12'0 0.0
2014-Apr-10 15:33N 38°41' W 009°12'0 0.0
2014-Apr-10 14:33N 38°41' W 009°12'0 0.0
2014-Apr-10 13:33N 38°41' W 009°12'0 0.0
2014-Apr-10 12:33N 38°41' W 009°12'0 0.0
2014-Apr-10 11:33N 38°41' W 009°12'0 0.0
2014-Apr-10 10:33N 38°41' W 009°12'0 0.0
2014-Apr-10 09:33N 38°41' W 009°12'0 0.0
2014-Apr-10 08:33N 38°41' W 009°12'0 0.0
2014-Apr-10 07:33N 38°41' W 009°12'0 0.0
2014-Apr-10 06:33N 38°41' W 009°12'0 0.0
2014-Apr-10 05:33N 38°41' W 009°12'0 0.0
2014-Apr-10 04:33N 38°41' W 009°12'0 0.0
2014-Apr-10 03:33N 38°41' W 009°12'0 0.0
2014-Apr-10 02:33N 38°41' W 009°12'0 0.0
2014-Apr-10 01:33N 38°41' W 009°12'0 0.0
2014-Apr-10 00:33N 38°41' W 009°12'0 0.0
2014-Apr-09 23:33N 38°41' W 009°12'6 5.9
2014-Apr-09 22:34N 38°40' W 009°19'5 4.9
2014-Apr-09 21:29N 38°40' W 009°26'8 8.9
2014-Apr-09 20:33N 38°37' W 009°36'12 9.5
2014-Apr-09 19:14N 38°36' W 009°52'910.2
2014-Apr-09 18:24N 38°35' W 010°03'  
2014-Apr-05 07:05N 50°13' W 001°35'712.4
2014-Apr-05 06:32N 50°15' W 001°25'1313.1
2014-Apr-05 05:33N 50°19' W 001°06'1313.4
2014-Apr-05 04:33N 50°22' W 000°45'1412.2
2014-Apr-05 03:26N 50°26' W 000°25'1111.0
2014-Apr-05 02:27N 50°29' W 000°08'9 9.8
2014-Apr-05 01:31N 50°31' E 000°06'9 8.9
2014-Apr-05 00:33N 50°34' E 000°18'8 8.4
2014-Apr-04 23:33N 50°36' E 000°31'9 9.1
2014-Apr-04 22:33N 50°41' E 000°43'1110.6
2014-Apr-04 21:33N 50°48' E 000°56'1211.7
2014-Apr-04 20:33N 50°55' E 001°11'1211.6
2014-Apr-04 19:33N 51°02' E 001°25'1010.1
2014-Apr-04 18:33N 51°09' E 001°37'9 8.9
2014-Apr-04 17:33N 51°15' E 001°47'8 8.4
2014-Apr-04 16:33N 51°23' E 001°53'9 8.7
2014-Apr-04 15:34N 51°30' E 002°00'10 9.5
2014-Apr-04 14:33N 51°37' E 002°10'5010.0
2014-Apr-04 09:33N 52°28' E 002°12'1111.3
2014-Apr-04 08:33N 52°38' E 002°05'1010.0
2014-Apr-04 07:33N 52°46' E 001°56'10 9.7
2014-Apr-04 06:33N 52°52' E 001°43'9 8.6
2014-Apr-04 05:33N 52°58' E 001°33'8 8.3
2014-Apr-04 04:33N 53°05' E 001°25'8 8.4
2014-Apr-04 03:33N 53°12' E 001°18'8 8.1
2014-Apr-04 02:33N 53°19' E 001°11'25 8.1
2014-Apr-03 23:28N 53°40' E 000°49'18 8.9
2014-Apr-03 21:29N 53°55' E 000°33'9 9.7
2014-Apr-03 20:33N 54°03' E 000°25'1010.0
2014-Apr-03 19:33N 54°11' E 000°16'1010.2
2014-Apr-03 18:33N 54°20' E 000°06'1010.1
2014-Apr-03 17:33N 54°26' W 000°07'1010.1
2014-Apr-03 16:33N 54°33' W 000°21'10 9.7
2014-Apr-03 15:33N 54°39' W 000°34'9 8.6
2014-Apr-03 14:33N 54°41' W 000°48'8 8.3
2014-Apr-03 13:32N 54°41' W 001°03'5 4.7
2014-Apr-03 12:25N 54°37' W 001°10'0 0.0
2014-Apr-03 11:31N 54°37' W 001°10'0 0.0
2014-Apr-03 10:28N 54°37' W 001°10'0 0.0
2014-Apr-03 09:31N 54°37' W 001°10'0 0.0
2014-Apr-03 08:31N 54°37' W 001°10'0 0.0
2014-Apr-03 07:28N 54°37' W 001°10'0 0.0
2014-Apr-03 06:28N 54°37' W 001°10'0 0.0
2014-Apr-03 05:31N 54°37' W 001°10'0 0.0
2014-Apr-03 04:31N 54°37' W 001°10'0 0.0
2014-Apr-03 03:31N 54°37' W 001°10'0 0.0
2014-Apr-03 02:31N 54°37' W 001°10'0 0.0
2014-Apr-03 01:31N 54°37' W 001°10'0 0.0
2014-Apr-03 00:28N 54°37' W 001°10'0 0.0
2014-Apr-02 23:31N 54°37' W 001°10'0 0.0
2014-Apr-02 22:31N 54°37' W 001°10'0 0.0
2014-Apr-02 21:31N 54°37' W 001°10'0 0.0
2014-Apr-02 20:31N 54°37' W 001°10'0 0.0
2014-Apr-02 19:31N 54°37' W 001°10'0 0.0
2014-Apr-02 18:31N 54°37' W 001°10'0 0.0
2014-Apr-02 17:31N 54°37' W 001°10'0 0.0
2014-Apr-02 16:31N 54°37' W 001°10'0 0.0
2014-Apr-02 15:31N 54°37' W 001°10'0 0.0
2014-Apr-02 14:31N 54°37' W 001°10'0 0.0
2014-Apr-02 13:31N 54°37' W 001°10'0 0.0
2014-Apr-02 12:31N 54°37' W 001°10'0 0.0
2014-Apr-02 11:31N 54°37' W 001°10'0 0.0
2014-Apr-02 10:31N 54°37' W 001°10'0 0.0
2014-Apr-02 09:31N 54°37' W 001°10'0 0.0
2014-Apr-02 08:31N 54°37' W 001°10'0 0.0
2014-Apr-02 07:31N 54°37' W 001°10'0 0.0
2014-Apr-02 06:31N 54°37' W 001°10'  

Dump ship's entire track history

sailing weather and tide predictions

M/T Goviken — 9HA2718 — position and weather